createdAt,value
2022-10-06T00:00:55.729Z,95.60
2022-10-06T00:03:23.196Z,95.50
2022-10-06T00:05:50.584Z,95.40
2022-10-06T00:08:17.753Z,95.20
2022-10-06T00:10:44.873Z,95.40
2022-10-06T00:13:11.621Z,95.50
2022-10-06T00:15:39.161Z,95.40
2022-10-06T00:18:06.059Z,95.50
2022-10-06T00:20:32.835Z,95.40
2022-10-06T00:22:59.548Z,95.60
2022-10-06T00:25:28.433Z,95.40
2022-10-06T00:27:55.587Z,95.30
2022-10-06T00:30:23.631Z,95.50
2022-10-06T00:32:52.381Z,95.40
2022-10-06T00:35:19.207Z,95.40
2022-10-06T00:37:45.936Z,95.10
2022-10-06T00:40:12.671Z,95.50
2022-10-06T00:42:50.386Z,95.40
2022-10-06T00:45:18.554Z,95.50
2022-10-06T00:47:45.440Z,95.40
2022-10-06T00:50:12.590Z,95.40
2022-10-06T00:52:39.812Z,95.40
2022-10-06T00:55:09.417Z,95.40
2022-10-06T00:57:37.664Z,95.60
2022-10-06T01:00:05.855Z,95.40
2022-10-06T01:02:43.887Z,95.40
2022-10-06T01:05:15.225Z,95.40
2022-10-06T01:07:41.932Z,95.30
2022-10-06T01:10:09.289Z,95.50
2022-10-06T01:12:36.070Z,95.50
2022-10-06T01:15:03.156Z,95.50
2022-10-06T01:17:31.690Z,95.40
2022-10-06T01:20:09.743Z,95.40
2022-10-06T01:22:37.759Z,95.50
2022-10-06T01:25:05.521Z,95.60
2022-10-06T01:27:33.154Z,95.60
2022-10-06T01:30:00.155Z,95.30
2022-10-06T01:32:31.580Z,95.30
2022-10-06T01:34:58.610Z,95.40
2022-10-06T01:37:25.276Z,95.40
2022-10-06T01:39:51.969Z,95.40
2022-10-06T01:42:18.735Z,95.50
2022-10-06T01:44:45.420Z,95.50
2022-10-06T01:47:12.135Z,95.50
2022-10-06T01:49:39.001Z,95.50
2022-10-06T01:52:05.969Z,95.30
2022-10-06T01:54:33.047Z,95.50
2022-10-06T01:56:59.807Z,95.20
2022-10-06T01:59:26.506Z,95.20
2022-10-06T02:01:53.909Z,95.50
2022-10-06T02:04:20.893Z,95.50
2022-10-06T02:06:47.666Z,95.50
2022-10-06T02:09:14.380Z,95.40
2022-10-06T02:11:41.217Z,95.20
2022-10-06T02:14:07.900Z,95.50
2022-10-06T02:16:36.151Z,95.40
2022-10-06T02:19:02.960Z,95.20
2022-10-06T02:21:29.667Z,95.30
2022-10-06T02:23:57.167Z,95.30
2022-10-06T02:26:24.180Z,95.50
2022-10-06T02:28:51.006Z,95.10
2022-10-06T02:31:18.052Z,95.30
2022-10-06T02:33:44.939Z,95.20
2022-10-06T02:36:12.714Z,95.20
2022-10-06T02:38:39.997Z,95.00
2022-10-06T02:41:07.151Z,95.10
2022-10-06T02:43:34.382Z,95.30
2022-10-06T02:46:02.765Z,95.20
2022-10-06T02:48:30.508Z,95.30
2022-10-06T02:50:58.339Z,95.20
2022-10-06T02:53:25.763Z,95.20
2022-10-06T02:56:00.685Z,95.40
2022-10-06T02:58:30.100Z,95.00
2022-10-06T03:01:08.115Z,94.90
2022-10-06T03:03:35.324Z,95.20
2022-10-06T03:06:03.392Z,94.70
2022-10-06T03:08:30.457Z,94.80
2022-10-06T03:11:03.940Z,94.90
2022-10-06T03:13:31.125Z,94.90
2022-10-06T03:15:58.509Z,95.00
2022-10-06T03:18:25.639Z,95.10
2022-10-06T03:20:54.119Z,95.00
2022-10-06T03:23:20.834Z,95.10
2022-10-06T03:25:55.098Z,95.10
2022-10-06T03:28:21.855Z,95.00
2022-10-06T03:30:57.163Z,95.20
2022-10-06T03:33:23.907Z,95.20
2022-10-06T03:35:58.417Z,95.20
2022-10-06T03:38:25.418Z,95.00
2022-10-06T03:40:52.393Z,94.80
2022-10-06T03:43:19.116Z,94.90
2022-10-06T03:45:55.035Z,95.00
2022-10-06T03:48:21.725Z,95.00
2022-10-06T03:50:55.114Z,95.20
2022-10-06T03:53:25.715Z,95.10
2022-10-06T03:56:03.549Z,95.20
2022-10-06T03:58:31.120Z,95.00
2022-10-06T04:01:05.429Z,95.00
2022-10-06T04:03:32.911Z,95.00
2022-10-06T04:06:01.175Z,94.90
2022-10-06T04:08:28.584Z,94.90
2022-10-06T04:10:56.088Z,94.70
2022-10-06T04:13:22.822Z,95.00
2022-10-06T04:15:49.679Z,94.60
2022-10-06T04:18:16.416Z,94.90
2022-10-06T04:20:43.175Z,94.80
2022-10-06T04:23:09.847Z,95.00
2022-10-06T04:25:36.539Z,94.70
2022-10-06T04:28:03.375Z,94.90
2022-10-06T04:30:30.565Z,94.90
2022-10-06T04:32:57.450Z,94.90
2022-10-06T04:35:24.287Z,95.00
2022-10-06T04:37:52.099Z,94.90
2022-10-06T04:40:18.823Z,94.90
2022-10-06T04:42:45.582Z,94.90
2022-10-06T04:45:12.540Z,94.70
2022-10-06T04:47:40.162Z,95.00
2022-10-06T04:50:06.913Z,95.00
2022-10-06T04:52:34.000Z,94.90
2022-10-06T04:55:00.710Z,95.00
2022-10-06T04:57:27.769Z,95.00
2022-10-06T05:00:15.034Z,94.90
2022-10-06T05:02:42.118Z,95.00
2022-10-06T05:05:08.991Z,95.10
2022-10-06T05:07:35.869Z,95.00
2022-10-06T05:10:02.730Z,94.90
2022-10-06T05:12:31.310Z,94.90
2022-10-06T05:14:58.178Z,94.60
2022-10-06T05:17:24.933Z,94.80
2022-10-06T05:19:51.612Z,95.00
2022-10-06T05:22:18.340Z,94.60
2022-10-06T05:24:45.080Z,94.60
2022-10-06T05:27:11.765Z,94.90
2022-10-06T05:29:39.456Z,94.70
2022-10-06T05:32:06.240Z,94.70
2022-10-06T05:34:33.021Z,94.80
2022-10-06T05:36:59.861Z,94.90
2022-10-06T05:39:26.580Z,94.70
2022-10-06T05:41:53.264Z,94.80
2022-10-06T05:44:19.989Z,94.90
2022-10-06T05:46:46.724Z,95.10
2022-10-06T05:49:13.497Z,94.60
2022-10-06T05:51:40.813Z,94.80
2022-10-06T05:54:07.725Z,94.90
2022-10-06T05:56:35.574Z,94.90
2022-10-06T05:59:02.672Z,95.00
2022-10-06T06:01:34.799Z,94.90
2022-10-06T06:04:03.231Z,95.10
2022-10-06T06:06:31.361Z,95.00
2022-10-06T06:08:59.594Z,95.10
2022-10-06T06:11:27.995Z,94.80
2022-10-06T06:13:58.807Z,94.80
2022-10-06T06:16:25.868Z,94.90
2022-10-06T06:18:52.763Z,95.00
2022-10-06T06:21:19.455Z,94.80
2022-10-06T06:23:46.883Z,94.90
2022-10-06T06:26:14.891Z,95.00
2022-10-06T06:28:42.401Z,95.00
2022-10-06T06:31:10.611Z,94.80
2022-10-06T06:33:38.423Z,95.00
2022-10-06T06:36:25.068Z,94.90
2022-10-06T06:38:55.972Z,95.10
2022-10-06T06:41:24.101Z,94.90
2022-10-06T06:43:51.440Z,95.00
2022-10-06T06:46:19.329Z,94.80
2022-10-06T06:48:47.252Z,94.70
2022-10-06T06:51:14.064Z,94.80
2022-10-06T06:53:41.164Z,95.20
2022-10-06T06:56:08.891Z,94.90
2022-10-06T06:58:36.100Z,95.10
2022-10-06T07:01:07.199Z,94.90
2022-10-06T07:03:56.082Z,94.90
2022-10-06T07:06:24.594Z,95.10
2022-10-06T07:08:57.854Z,95.10
2022-10-06T07:11:34.946Z,95.00
2022-10-06T07:14:03.728Z,95.10
2022-10-06T07:16:49.971Z,95.10
2022-10-06T07:19:36.630Z,95.10
2022-10-06T07:22:32.269Z,94.80
2022-10-06T07:25:11.716Z,95.10
2022-10-06T07:27:38.540Z,94.90
2022-10-06T07:30:05.619Z,95.10
2022-10-06T07:32:32.336Z,95.10
2022-10-06T07:34:59.221Z,95.10
2022-10-06T07:37:27.010Z,95.00
2022-10-06T07:39:53.706Z,94.90
2022-10-06T07:42:20.923Z,95.00
2022-10-06T07:45:23.155Z,95.10
2022-10-06T07:47:57.158Z,94.90
2022-10-06T07:50:25.989Z,95.00
2022-10-06T07:52:52.663Z,95.00
2022-10-06T07:55:19.792Z,95.20
2022-10-06T07:57:46.942Z,94.90
2022-10-06T08:00:15.854Z,94.90
2022-10-06T08:02:42.698Z,94.90
2022-10-06T08:05:09.908Z,95.20
2022-10-06T08:07:36.618Z,94.80
2022-10-06T08:10:03.579Z,95.00
2022-10-06T08:12:33.142Z,94.90
2022-10-06T08:15:07.053Z,94.70
2022-10-06T08:17:38.175Z,94.70
2022-10-06T08:20:06.080Z,94.80
2022-10-06T08:22:33.333Z,94.70
2022-10-06T08:25:07.475Z,94.70
2022-10-06T08:27:35.507Z,94.80
2022-10-06T08:30:02.818Z,95.00
2022-10-06T08:32:29.607Z,94.80
2022-10-06T08:34:57.072Z,94.60
2022-10-06T08:37:24.627Z,94.50
2022-10-06T08:39:51.555Z,94.70
2022-10-06T08:42:23.842Z,94.40
2022-10-06T08:44:56.668Z,94.20
2022-10-06T08:47:24.584Z,94.40
2022-10-06T08:49:52.722Z,94.00
2022-10-06T08:52:20.549Z,94.10
2022-10-06T08:55:05.627Z,93.90
2022-10-06T08:57:50.615Z,94.10
2022-10-06T09:00:21.207Z,93.90
2022-10-06T09:02:50.063Z,93.90
2022-10-06T09:05:25.584Z,93.90
2022-10-06T09:08:12.453Z,93.80
2022-10-06T09:10:44.807Z,93.70
2022-10-06T09:13:11.504Z,93.80
2022-10-06T09:15:41.587Z,93.70
2022-10-06T09:18:09.201Z,93.80
2022-10-06T09:20:40.040Z,93.70
2022-10-06T09:23:11.990Z,93.60
2022-10-06T09:25:38.776Z,93.60
2022-10-06T09:28:10.156Z,93.50
2022-10-06T09:30:37.390Z,93.60
2022-10-06T09:33:05.772Z,93.70
2022-10-06T09:35:32.694Z,93.60
2022-10-06T09:38:08.197Z,93.70
2022-10-06T09:40:38.513Z,93.70
2022-10-06T09:43:16.585Z,94.00
2022-10-06T09:45:43.370Z,93.80
2022-10-06T09:48:25.174Z,93.60
2022-10-06T09:51:10.996Z,94.00
2022-10-06T09:53:39.821Z,93.90
2022-10-06T09:56:13.113Z,93.80
2022-10-06T09:58:39.849Z,93.70
2022-10-06T10:01:11.773Z,93.80
2022-10-06T10:04:01.858Z,94.00
2022-10-06T10:06:32.730Z,94.00
2022-10-06T10:09:22.497Z,94.00
2022-10-06T10:12:26.273Z,94.10
2022-10-06T10:15:16.122Z,94.10
2022-10-06T10:17:46.817Z,94.40
2022-10-06T10:20:37.240Z,94.20
2022-10-06T10:23:03.981Z,94.20
2022-10-06T10:25:33.421Z,94.20
2022-10-06T10:28:06.457Z,94.30
2022-10-06T10:30:38.185Z,94.50
2022-10-06T10:33:09.591Z,94.50
2022-10-06T10:35:41.819Z,94.40
2022-10-06T10:38:22.273Z,94.40
2022-10-06T10:40:55.489Z,94.30
2022-10-06T10:43:34.074Z,94.40
2022-10-06T10:46:00.749Z,94.30
2022-10-06T10:48:34.274Z,94.50
2022-10-06T10:51:08.745Z,94.80
2022-10-06T10:53:37.608Z,94.60
2022-10-06T10:56:08.983Z,94.20
2022-10-06T10:58:36.918Z,94.60
2022-10-06T11:01:16.629Z,94.40
2022-10-06T11:03:43.619Z,94.30
2022-10-06T11:06:36.648Z,94.40
2022-10-06T11:09:07.412Z,94.30
2022-10-06T11:11:52.206Z,94.30
2022-10-06T11:14:35.435Z,94.40
2022-10-06T11:17:02.115Z,94.60
2022-10-06T11:19:35.502Z,94.30
2022-10-06T11:22:06.501Z,94.40
2022-10-06T11:24:33.162Z,94.30
2022-10-06T11:27:08.785Z,94.40
2022-10-06T11:29:40.593Z,94.60
2022-10-06T11:32:13.440Z,94.40
2022-10-06T11:34:40.865Z,94.40
2022-10-06T11:37:10.433Z,94.40
2022-10-06T11:39:56.311Z,94.40
2022-10-06T11:42:33.115Z,94.60
2022-10-06T11:45:04.023Z,94.60
2022-10-06T11:47:42.951Z,94.70
2022-10-06T11:50:28.530Z,94.60
2022-10-06T11:52:55.923Z,94.70
2022-10-06T11:55:26.209Z,94.80
2022-10-06T11:58:08.702Z,94.50
2022-10-06T12:00:45.545Z,94.60
2022-10-06T12:03:33.167Z,94.60
2022-10-06T12:05:59.877Z,94.80
2022-10-06T12:08:40.173Z,94.80
2022-10-06T12:11:25.645Z,94.80
2022-10-06T12:19:34.586Z,94.80
2022-10-06T12:22:12.985Z,94.70
2022-10-06T12:24:42.941Z,94.80
2022-10-06T12:27:23.526Z,94.50
2022-10-06T12:29:52.657Z,94.60
2022-10-06T12:32:19.364Z,94.70
2022-10-06T12:34:46.061Z,94.80
2022-10-06T12:37:31.384Z,94.80
2022-10-06T12:40:16.681Z,94.80
2022-10-06T12:42:43.406Z,95.00
2022-10-06T12:45:15.696Z,95.20
2022-10-06T12:47:43.631Z,94.70
2022-10-06T12:50:22.584Z,95.00
2022-10-06T12:53:15.458Z,95.10
2022-10-06T12:55:45.927Z,95.10
2022-10-06T12:58:32.468Z,94.80
2022-10-06T13:01:07.540Z,94.90
2022-10-06T13:03:34.612Z,95.00
2022-10-06T13:06:03.361Z,94.50
2022-10-06T13:08:34.955Z,94.70
2022-10-06T13:11:21.657Z,94.80
2022-10-06T13:13:55.886Z,94.40
2022-10-06T13:16:27.524Z,95.00
2022-10-06T13:18:55.252Z,95.20
2022-10-06T13:21:22.063Z,95.00
2022-10-06T13:23:48.880Z,94.60
2022-10-06T13:26:23.363Z,94.70
2022-10-06T13:28:56.854Z,95.00
2022-10-06T13:31:26.813Z,94.90
2022-10-06T13:34:13.340Z,95.20
2022-10-06T13:36:45.034Z,95.00
2022-10-06T13:39:11.740Z,94.80
2022-10-06T13:41:43.454Z,94.90
2022-10-06T13:44:18.837Z,95.00
2022-10-06T13:46:49.184Z,94.70
2022-10-06T13:49:16.140Z,94.80
2022-10-06T13:51:46.000Z,95.00
2022-10-06T13:54:23.821Z,94.30
2022-10-06T13:56:50.588Z,94.80
2022-10-06T13:59:20.054Z,94.80
2022-10-06T14:01:46.955Z,95.00
2022-10-06T14:04:18.366Z,94.80
2022-10-06T14:06:49.947Z,94.80
2022-10-06T14:09:19.955Z,94.50
2022-10-06T14:11:46.984Z,95.00
2022-10-06T14:14:15.943Z,94.90
2022-10-06T14:16:47.631Z,95.10
2022-10-06T14:19:33.067Z,94.90
2022-10-06T14:22:00.447Z,94.80
2022-10-06T14:24:28.432Z,95.00
2022-10-06T14:27:00.287Z,95.00
2022-10-06T14:29:27.010Z,94.70
2022-10-06T14:31:53.754Z,95.00
2022-10-06T14:34:21.686Z,94.80
2022-10-06T14:36:51.746Z,95.00
2022-10-06T14:39:18.864Z,95.20
2022-10-06T14:41:45.912Z,94.70
2022-10-06T14:44:13.172Z,94.70
2022-10-06T14:46:41.428Z,94.00
2022-10-06T14:49:09.106Z,94.40
2022-10-06T14:51:37.183Z,94.70
2022-10-06T14:54:04.911Z,94.60
2022-10-06T14:56:32.864Z,94.70
2022-10-06T14:59:00.877Z,94.80
2022-10-06T15:01:28.860Z,94.90
2022-10-06T15:03:57.186Z,94.70
2022-10-06T15:06:42.768Z,94.80
2022-10-06T15:09:09.888Z,94.90
2022-10-06T15:11:37.101Z,94.90
2022-10-06T15:14:04.360Z,95.00
2022-10-06T15:16:31.897Z,95.00
2022-10-06T15:18:59.285Z,94.90
2022-10-06T15:21:26.691Z,94.70
2022-10-06T15:23:57.114Z,95.00
2022-10-06T15:26:42.370Z,95.10
2022-10-06T15:29:09.442Z,95.20
2022-10-06T15:31:37.325Z,94.90
2022-10-06T15:34:05.327Z,95.00
2022-10-06T15:36:38.565Z,94.80
2022-10-06T15:39:09.625Z,94.80
2022-10-06T15:41:36.977Z,95.20
2022-10-06T15:44:04.247Z,94.80
2022-10-06T15:46:32.246Z,95.00
2022-10-06T15:49:01.109Z,95.10
2022-10-06T15:51:29.269Z,95.00
2022-10-06T15:53:57.952Z,94.60
2022-10-06T15:56:25.496Z,94.90
2022-10-06T15:58:52.238Z,94.70
2022-10-06T16:01:25.398Z,94.90
2022-10-06T16:03:53.423Z,94.90
2022-10-06T16:06:49.462Z,95.10
2022-10-06T16:09:18.021Z,95.30
2022-10-06T16:11:45.238Z,94.90
2022-10-06T16:14:11.930Z,94.70
2022-10-06T16:16:43.328Z,95.20
2022-10-06T16:19:10.832Z,94.70
2022-10-06T16:21:38.037Z,95.00
2022-10-06T16:24:04.800Z,95.00
2022-10-06T16:26:31.608Z,95.10
2022-10-06T16:28:58.443Z,95.20
2022-10-06T16:31:25.265Z,95.10
2022-10-06T16:33:52.412Z,95.00
2022-10-06T16:36:19.519Z,95.30
2022-10-06T16:38:48.847Z,95.20
2022-10-06T16:41:15.593Z,95.10
2022-10-06T16:43:43.428Z,94.80
2022-10-06T16:46:13.268Z,95.30
2022-10-06T16:48:41.140Z,95.00
2022-10-06T16:51:15.794Z,95.00
2022-10-06T16:53:43.975Z,95.20
2022-10-06T16:56:13.929Z,94.90
2022-10-06T16:58:42.072Z,95.20
2022-10-06T17:01:09.820Z,95.30
2022-10-06T17:03:37.139Z,95.00
2022-10-06T17:06:07.497Z,94.90
2022-10-06T17:08:34.861Z,95.10
2022-10-06T17:11:09.930Z,95.40
2022-10-06T17:13:37.630Z,95.40
2022-10-06T17:16:14.841Z,95.20
2022-10-06T17:18:41.644Z,95.40
2022-10-06T17:21:32.154Z,95.30
2022-10-06T17:23:58.322Z,95.20
2022-10-06T17:26:35.014Z,95.60
2022-10-06T17:29:03.968Z,95.30
2022-10-06T17:31:35.413Z,95.20
2022-10-06T17:34:02.937Z,95.20
2022-10-06T17:36:29.755Z,95.20
2022-10-06T17:38:58.376Z,95.50
2022-10-06T17:41:29.555Z,95.40
2022-10-06T17:43:59.081Z,95.50
2022-10-06T17:46:27.029Z,95.80
2022-10-06T17:48:55.196Z,95.20
2022-10-06T17:51:23.512Z,95.20
2022-10-06T17:53:51.443Z,95.20
2022-10-06T17:56:19.576Z,95.30
2022-10-06T17:58:56.487Z,95.50
2022-10-06T18:01:24.311Z,95.30
2022-10-06T18:03:52.830Z,95.40
2022-10-06T18:06:19.775Z,95.30
2022-10-06T18:08:47.763Z,95.40
2022-10-06T18:11:39.252Z,95.40
2022-10-06T18:14:07.313Z,95.50
2022-10-06T18:16:39.152Z,95.60
2022-10-06T18:19:07.481Z,95.40
2022-10-06T18:21:38.810Z,95.40
2022-10-06T18:24:06.745Z,95.50
2022-10-06T18:26:36.520Z,95.30
2022-10-06T18:29:03.243Z,95.70
2022-10-06T18:31:30.010Z,95.40
2022-10-06T18:36:43.693Z,95.60
2022-10-06T18:39:11.289Z,95.90
2022-10-06T18:41:39.649Z,95.60
2022-10-06T18:44:06.625Z,95.60
2022-10-06T18:46:52.303Z,95.60
2022-10-06T18:49:20.489Z,95.40
2022-10-06T18:51:58.081Z,95.40
2022-10-06T18:54:30.180Z,95.80
2022-10-06T18:56:57.220Z,95.50
2022-10-06T18:59:26.759Z,95.60
2022-10-06T19:01:54.348Z,95.40
2022-10-06T19:04:21.976Z,95.70
2022-10-06T19:06:50.265Z,95.40
2022-10-06T19:09:18.895Z,95.80
2022-10-06T19:11:53.027Z,95.70
2022-10-06T19:14:25.500Z,95.60
2022-10-06T19:17:03.443Z,95.40
2022-10-06T19:19:31.020Z,95.60
2022-10-06T19:22:02.718Z,95.40
2022-10-06T19:24:29.564Z,95.80
2022-10-06T19:26:56.544Z,95.60
2022-10-06T19:29:24.232Z,95.90
2022-10-06T19:31:52.273Z,95.60
2022-10-06T19:34:19.967Z,95.80
2022-10-06T19:36:49.539Z,95.80
2022-10-06T19:39:16.668Z,95.70
2022-10-06T19:42:01.836Z,95.60
2022-10-06T19:44:28.647Z,95.60
2022-10-06T19:46:55.406Z,95.80
2022-10-06T19:49:22.837Z,95.50
2022-10-06T19:51:49.945Z,95.60
2022-10-06T19:54:17.883Z,95.60
2022-10-06T19:56:45.952Z,95.50
2022-10-06T19:59:14.273Z,95.60
2022-10-06T20:01:41.509Z,95.70
2022-10-06T20:04:08.466Z,95.80
2022-10-06T20:06:36.218Z,95.50
2022-10-06T20:09:06.887Z,95.40
2022-10-06T20:11:36.804Z,95.90
2022-10-06T20:14:04.618Z,95.60
2022-10-06T20:16:32.179Z,95.50
2022-10-06T20:18:59.189Z,95.70
2022-10-06T20:21:34.270Z,95.70
2022-10-06T20:24:02.261Z,95.60
2022-10-06T20:26:31.005Z,95.90
2022-10-06T20:28:58.747Z,95.60
2022-10-06T20:31:26.847Z,95.50
2022-10-06T20:33:58.187Z,95.80
2022-10-06T20:36:25.562Z,95.60
2022-10-06T20:39:11.053Z,95.60
2022-10-06T20:41:38.098Z,95.70
2022-10-06T20:44:04.962Z,95.60
2022-10-06T20:46:34.196Z,95.60
2022-10-06T20:49:04.738Z,95.50
2022-10-06T20:51:32.475Z,95.90
2022-10-06T20:53:59.630Z,95.50
2022-10-06T20:56:26.478Z,95.60
2022-10-06T20:58:53.843Z,95.90
2022-10-06T21:01:21.881Z,95.80
2022-10-06T21:03:49.514Z,95.80
2022-10-06T21:06:17.562Z,95.80
2022-10-06T21:08:45.241Z,95.90
2022-10-06T21:11:12.989Z,95.60
2022-10-06T21:13:40.220Z,95.70
2022-10-06T21:16:07.741Z,95.60
2022-10-06T21:18:34.656Z,95.90
2022-10-06T21:21:04.825Z,95.80
2022-10-06T21:23:36.959Z,95.70
2022-10-06T21:26:04.337Z,95.60
2022-10-06T21:28:32.118Z,95.90
2022-10-06T21:31:02.734Z,95.50
2022-10-06T21:33:29.909Z,95.50
2022-10-06T21:36:03.749Z,95.70
2022-10-06T21:38:31.178Z,95.80
2022-10-06T21:41:01.813Z,95.90
2022-10-06T21:43:31.445Z,95.70
2022-10-06T21:46:23.864Z,95.70
2022-10-06T21:48:48.740Z,95.40
2022-10-06T21:51:15.483Z,95.60
2022-10-06T21:53:42.262Z,95.80
2022-10-06T21:56:09.005Z,95.60
2022-10-06T21:58:35.747Z,95.50
2022-10-06T22:01:03.382Z,95.60
2022-10-06T22:03:30.143Z,95.60
2022-10-06T22:06:01.703Z,95.90
2022-10-06T22:08:30.589Z,95.70
2022-10-06T22:11:02.248Z,95.80
2022-10-06T22:13:28.949Z,95.70
2022-10-06T22:15:55.767Z,95.60
2022-10-06T22:18:22.607Z,95.80
2022-10-06T22:20:49.306Z,95.70
2022-10-06T22:23:16.108Z,95.50
2022-10-06T22:25:42.806Z,95.70
2022-10-06T22:28:09.569Z,95.60
2022-10-06T22:30:36.384Z,95.80
2022-10-06T22:33:03.099Z,95.80
2022-10-06T22:35:29.830Z,95.80
2022-10-06T22:37:56.581Z,95.90
2022-10-06T22:40:23.260Z,95.70
2022-10-06T22:42:49.963Z,95.70
2022-10-06T22:45:16.728Z,95.90
2022-10-06T22:47:43.586Z,95.80
2022-10-06T22:50:10.482Z,95.90
2022-10-06T22:52:37.225Z,95.80
2022-10-06T22:55:04.077Z,95.70
2022-10-06T22:57:31.459Z,95.80
2022-10-06T22:59:58.229Z,95.80
2022-10-06T23:02:24.951Z,95.90
2022-10-06T23:04:51.676Z,95.70
2022-10-06T23:07:18.401Z,95.60
2022-10-06T23:09:45.177Z,95.80
2022-10-06T23:12:11.880Z,95.70
2022-10-06T23:14:38.616Z,95.50
2022-10-06T23:17:05.307Z,95.80
2022-10-06T23:19:32.014Z,95.70
2022-10-06T23:21:58.737Z,95.70
2022-10-06T23:24:25.427Z,95.80
2022-10-06T23:26:52.151Z,95.60
2022-10-06T23:29:18.955Z,95.80
2022-10-06T23:31:45.733Z,95.80
2022-10-06T23:34:12.533Z,95.80
2022-10-06T23:36:39.285Z,95.80
2022-10-06T23:39:06.033Z,95.90
2022-10-06T23:41:32.725Z,95.70
2022-10-06T23:43:59.512Z,95.80
2022-10-06T23:46:26.224Z,95.70
2022-10-06T23:48:53.000Z,95.70
2022-10-06T23:51:19.751Z,96.00
2022-10-06T23:53:46.456Z,95.80
2022-10-06T23:56:13.426Z,95.70
2022-10-06T23:58:41.720Z,96.00
